Latest Weather Observations for Leinster

IDW60801

Issued at 8:33 am WST Tuesday 27 January 2015 (issued every 30 minutes, with the page automatically refreshed every 10 minutes)

About weather observations | Map of weather stations | Latest weather observations for WA | Other Formats
Station Details ID: 012314 Name: LEINSTER AERO Lat: -27.84 Lon: 120.70 Height: 497.0 m
Data from the previous 72 hours. | See also: Recent months at Leinster
Date/Time
WST
Temp
°C
App
Temp
°C
Dew
Point
Rel
Hum
%
Delta-T
°C
Wind Press
QNH
hPa
Press
MSL
hPa
Rain
since 9 am
mm
Dir
 
Spd
km/h
Gust
km/h
Spd
kts
Gust
kts
27/08:30am 27.4 23.3 6.2 26 11.4 E 17 24 9 13 1011.5 1007.6 0.0
27/08:00am 26.7 22.0 6.2 27 10.9 ENE 20 32 11 17 1011.0 1007.1 0.0
27/07:30am 26.0 22.2 11.0 39 8.6 ENE 22 32 12 17 1010.8 1006.9 0.0
27/07:00am 25.5 23.3 14.3 50 6.8 ENE 19 24 10 13 1011.1 1007.2 0.0
27/06:30am 24.9 24.2 15.5 56 5.8 NE 13 19 7 10 1011.1 1007.2 0.0
27/06:00am 24.4 24.5 15.6 58 5.4 NE 9 11 5 6 1011.2 1007.3 0.0
27/05:30am 24.2 24.5 15.9 59 5.1 NNE 9 13 5 7 1010.9 1007.0 0.0
27/05:00am 24.5 24.9 15.4 57 5.6 NNE 7 9 4 5 1010.4 1006.5 0.0
27/04:30am 24.3 24.0 15.5 58 5.4 ENE 11 19 6 10 1009.8 1005.8 0.0
27/04:00am 24.1 23.2 15.9 60 5.1 ESE 15 24 8 13 1008.7 1004.8 0.0
27/03:30am 24.1 23.2 15.9 60 5.1 E 15 20 8 11 1009.1 1005.2 0.0
27/03:00am 24.0 22.8 16.0 61 5.0 E 17 24 9 13 1008.8 1004.9 0.0
27/02:30am 23.8 22.3 16.3 63 4.7 NE 19 26 10 14 1009.2 1005.3 0.0
27/02:00am 23.8 22.6 16.1 62 4.8 NNE 17 22 9 12 1009.8 1005.8 0.0
27/01:30am 23.8 24.2 16.3 63 4.7 N 9 13 5 7 1009.9 1005.9 0.0
27/01:00am 24.2 22.9 15.7 59 5.3 NNW 17 20 9 11 1010.3 1006.3 0.0
27/12:30am 24.7 23.6 15.3 56 5.8 NNW 15 24 8 13 1011.0 1007.1 0.0
27/12:00am 26.1 23.8 14.2 48 7.2 NW 19 26 10 14 1010.8 1006.9 0.0
 
Date/Time
WST
Temp
°C
App
Temp
°C
Dew
Point
Rel
Hum
%
Delta-T
°C
Wind Press
QNH
hPa
Press
MSL
hPa
Rain
since 9 am
mm
Dir
 
Spd
km/h
Gust
km/h
Spd
kts
Gust
kts
26/11:30pm 27.8 25.4 12.6 39 9.1 NNW 17 26 9 14 1011.2 1007.3 0.0
26/11:00pm 30.5 26.5 8.3 25 12.5 ENE 19 32 10 17 1010.2 1006.2 0.0
26/10:30pm 30.8 25.8 7.9 24 12.8 E 24 35 13 19 1009.9 1005.9 0.0
26/10:00pm 31.1 26.5 8.2 24 12.9 ENE 22 35 12 19 1010.2 1006.2 0.0
26/09:30pm 31.4 26.7 7.8 23 13.2 E 22 39 12 21 1010.0 1006.0 0.0
26/09:00pm 31.5 26.8 7.9 23 13.3 E 22 35 12 19 1009.0 1005.1 0.0
26/08:30pm 32.0 26.1 7.6 22 13.7 E 28 43 15 23 1008.5 1004.6 0.0
26/08:08pm 32.3 26.5 7.9 22 13.8 E 28 46 15 25 1008.1 1004.1 0.0
26/08:00pm 32.5 26.7 8.0 22 13.9 E 28 43 15 23 1008.1 1004.1 0.0
26/07:30pm 32.9 28.6 7.7 21 14.2 E 20 35 11 19 1007.9 1003.9 0.0
26/07:00pm 33.6 29.2 7.5 20 14.8 E 20 32 11 17 1007.9 1003.9 0.0
26/06:30pm 33.9 28.8 7.8 20 14.9 E 24 33 13 18 1007.4 1003.5 0.0
26/06:00pm 34.5 29.0 7.5 19 15.3 E 26 39 14 21 1006.9 1003.0 0.0
26/05:30pm 35.3 30.5 7.4 18 15.9 E 22 33 12 18 1007.0 1003.1 0.0
26/05:00pm 35.9 31.4 7.0 17 16.4 ENE 20 37 11 20 1007.0 1003.1 0.0
26/04:30pm 36.8 32.5 7.8 17 16.7 E 20 37 11 20 1007.6 1003.6 0.0
26/04:00pm 35.5 31.3 7.5 18 16.0 ESE 19 35 10 19 1007.9 1003.9 0.0
26/03:30pm 35.4 31.6 7.5 18 15.9 E 17 33 9 18 1008.4 1004.4 0.0
26/03:00pm 36.3 32.5 7.4 17 16.5 ENE 17 30 9 16 1008.7 1004.8 0.0
26/02:30pm 35.7 31.6 7.7 18 16.0 E 19 32 10 17 1009.1 1005.2 0.0
26/02:00pm 35.3 31.5 7.4 18 15.9 E 17 32 9 17 1009.3 1005.4 0.0
26/01:30pm 34.4 29.8 6.7 18 15.5 ENE 20 33 11 18 1009.8 1005.8 0.0
26/01:00pm 32.9 28.2 6.2 19 14.7 ESE 20 35 11 19 1010.3 1006.3 0.0
26/12:30pm 33.0 28.0 6.3 19 14.7 E 22 32 12 17 1010.7 1006.8 0.0
26/12:00pm 31.7 26.6 6.0 20 14.0 E 22 41 12 22 1011.3 1007.4 0.0
26/11:30am 32.4 27.1 6.6 20 14.3 E 24 35 13 19 1011.9 1007.9 0.0
26/11:00am 31.4 26.4 6.5 21 13.7 E 22 33 12 18 1012.3 1008.4 0.0
26/10:44am 30.7 24.6 6.6 22 13.2 ENE 28 46 15 25 1012.4 1008.5 0.0
26/10:30am 30.4 24.5 5.6 21 13.4 ENE 26 39 14 21 1012.6 1008.7 0.0
26/10:00am 30.2 25.1 6.1 22 13.1 ENE 22 33 12 18 1012.8 1008.9 0.0
26/09:30am 27.7 22.2 5.9 25 11.6 E 24 37 13 20 1012.9 1009.0 0.0
26/09:00am 28.4 23.3 5.9 24 12.1 E 22 43 12 23 1012.9 1009.0 0.0
26/08:30am 27.7 20.9 5.3 24 11.8 ENE 30 44 16 24 1012.8 1008.9 0.0
26/08:00am 26.5 19.8 5.5 26 11.1 E 30 43 16 23 1013.0 1009.1 0.0
26/07:30am 26.0 19.4 6.1 28 10.6 E 30 52 16 28 1012.9 1009.0 0.0
26/07:21am 25.6 19.1 6.3 29 10.2 E 30 52 16 28 1012.9 1009.0 0.0
26/07:00am 24.8 19.1 6.5 31 9.7 E 26 43 14 23 1013.0 1009.1 0.0
26/06:30am 24.2 20.0 7.4 34 9.0 ESE 19 28 10 15 1013.0 1009.1 0.0
26/06:00am 23.5 19.7 7.6 36 8.5 ESE 17 24 9 13 1012.8 1008.9 0.0
26/05:30am 24.0 19.7 7.2 34 9.0 E 19 28 10 15 1012.6 1008.7 0.0
26/05:00am 24.3 20.5 7.4 34 9.1 E 17 24 9 13 1012.3 1008.4 0.0
26/04:30am 24.6 20.4 7.3 33 9.3 E 19 26 10 14 1011.9 1007.9 0.0
26/04:00am 24.7 21.0 7.8 34 9.2 E 17 28 9 15 1011.7 1007.8 0.0
26/03:30am 24.8 21.3 7.4 33 9.4 E 15 24 8 13 1011.7 1007.8 0.0
26/03:00am 24.8 21.7 7.4 33 9.4 E 13 19 7 10 1011.7 1007.8 0.0
26/02:30am 24.8 21.7 7.4 33 9.4 E 13 20 7 11 1011.9 1007.9 0.0
26/02:00am 25.1 22.2 8.1 34 9.3 E 13 19 7 10 1011.9 1007.9 0.0
26/01:30am 25.6 22.3 8.1 33 9.6 E 15 20 8 11 1011.9 1007.9 0.0
26/01:00am 25.9 21.9 8.4 33 9.7 ENE 19 26 10 14 1012.2 1008.3 0.0
26/12:30am 26.1 22.4 8.1 32 9.9 ENE 17 24 9 13 1012.2 1008.3 0.0
26/12:00am 26.3 22.2 7.8 31 10.1 E 19 28 10 15 1012.2 1008.3 0.0
 
Date/Time
WST
Temp
°C
App
Temp
°C
Dew
Point
Rel
Hum
%
Delta-T
°C
Wind Press
QNH
hPa
Press
MSL
hPa
Rain
since 9 am
mm
Dir
 
Spd
km/h
Gust
km/h
Spd
kts
Gust
kts
25/11:30pm 26.6 22.0 8.1 31 10.2 E 22 30 12 16 1011.9 1007.9 0.0
25/11:00pm 27.0 22.5 8.4 31 10.3 E 22 32 12 17 1011.6 1007.7 0.0
25/10:30pm 27.0 23.2 8.9 32 10.1 E 19 26 10 14 1012.0 1008.0 0.0
25/10:00pm 27.3 23.4 8.7 31 10.4 E 19 30 10 16 1011.6 1007.7 0.0
25/09:30pm 27.4 23.9 8.8 31 10.4 ESE 17 26 9 14 1011.6 1007.7 0.0
25/09:00pm 27.7 23.2 8.6 30 10.7 E 22 35 12 19 1011.7 1007.8 0.0
25/08:30pm 28.2 23.8 9.0 30 10.8 E 22 32 12 17 1011.4 1007.5 0.0
25/08:00pm 28.4 24.4 9.2 30 10.9 ESE 20 32 11 17 1010.9 1007.0 0.0
25/07:30pm 29.1 24.8 9.3 29 11.3 ESE 22 35 12 19 1010.5 1006.6 0.0
25/07:00pm 29.9 25.5 8.9 27 11.9 ESE 22 35 12 19 1010.0 1006.0 0.0
25/06:30pm 30.6 25.3 8.3 25 12.6 ESE 26 39 14 21 1009.3 1005.4 0.0
25/06:00pm 31.8 26.2 8.7 24 13.2 SE 28 43 15 23 1008.8 1004.9 0.0
25/05:30pm 32.2 26.0 7.8 22 13.7 SE 30 39 16 21 1008.7 1004.8 0.0
25/05:00pm 32.8 27.1 8.3 22 14.0 SE 28 44 15 24 1008.9 1005.0 0.0
25/04:30pm 33.4 27.3 8.1 21 14.4 SE 30 44 16 24 1009.0 1005.1 0.0
25/04:00pm 33.1 27.3 7.9 21 14.3 ESE 28 43 15 23 1009.4 1005.5 0.0
25/03:30pm 34.2 28.4 8.0 20 14.9 ESE 28 39 15 21 1010.0 1006.0 0.0
25/03:00pm 33.7 28.8 8.3 21 14.5 ESE 24 39 13 21 1010.2 1006.2 0.0
25/02:30pm 33.6 28.3 8.3 21 14.5 ESE 26 39 14 21 1010.5 1006.6 0.0
25/02:00pm 33.1 27.7 7.9 21 14.3 ESE 26 39 14 21 1010.7 1006.8 0.0
25/01:30pm 33.1 28.6 8.5 22 14.1 SE 22 33 12 18 1011.2 1007.3 0.0
25/01:00pm 33.2 28.2 6.5 19 14.8 ENE 22 32 12 17 1011.4 1007.5 0.0
25/12:30pm 33.6 29.1 6.8 19 15.0 E 20 32 11 17 1011.6 1007.7 0.0
25/12:00pm 31.7 27.1 6.7 21 13.8 E 20 35 11 19 1012.2 1008.3 0.0
25/11:30am 31.0 25.7 6.8 22 13.3 ESE 24 33 13 18 1012.5 1008.6 0.0
25/11:00am 30.4 25.7 7.6 24 12.7 ESE 22 35 12 19 1013.0 1009.1 0.0
25/10:30am 28.9 24.0 6.9 25 12.0 ENE 22 35 12 19 1013.3 1009.4 0.0
25/10:00am 28.9 23.2 6.9 25 12.0 E 26 39 14 21 1013.2 1009.3 0.0
25/09:30am 28.2 22.9 6.9 26 11.6 E 24 37 13 20 1013.4 1009.5 0.0
25/09:00am 28.4 23.2 7.1 26 11.6 E 24 39 13 21 1013.4 1009.5 0.0
25/08:30am 27.8 22.2 7.1 27 11.3 E 26 39 14 21 1013.4 1009.5 0.0
25/08:00am 27.0 21.7 6.9 28 10.9 ESE 24 37 13 20 1013.2 1009.3 0.0
25/07:30am 27.1 20.5 6.0 26 11.2 ESE 30 43 16 23 1012.6 1008.7 0.0
25/07:00am 27.0 20.5 4.7 24 11.6 ESE 28 46 15 25 1012.3 1008.4 0.0
25/06:53am 26.6 20.0 4.4 24 11.5 E 28 46 15 25 1012.2 1008.3 0.0
25/06:30am 26.5 21.1 4.3 24 11.4 ESE 22 32 12 17 1011.9 1007.9 0.0
25/06:00am 26.2 21.4 4.6 25 11.2 E 19 28 10 15 1011.4 1007.5 0.0
25/05:30am 26.0 21.1 5.0 26 10.9 E 20 32 11 17 1011.0 1007.1 0.0
25/05:00am 26.5 21.3 5.5 26 11.1 E 22 33 12 18 1010.8 1006.9 0.0
25/04:30am 26.9 22.3 5.8 26 11.2 E 19 32 10 17 1010.6 1006.7 0.0
25/04:00am 27.4 22.7 6.2 26 11.4 E 20 32 11 17 1010.3 1006.3 0.0
25/03:30am 27.8 23.7 6.0 25 11.7 E 17 28 9 15 1010.1 1006.1 0.0
25/03:00am 28.2 23.6 5.7 24 12.0 ESE 19 28 10 15 1009.6 1005.7 0.0
25/02:30am 28.9 24.1 5.7 23 12.4 E 20 35 11 19 1009.5 1005.6 0.0
25/02:00am 29.5 24.7 5.6 22 12.8 E 20 32 11 17 1009.4 1005.5 0.0
25/01:30am 29.8 25.6 5.8 22 12.9 E 17 28 9 15 1009.5 1005.6 0.0
25/01:00am 30.4 25.6 5.6 21 13.4 ESE 20 30 11 16 1009.5 1005.6 0.0
25/12:30am 30.6 26.6 5.1 20 13.6 ESE 15 22 8 12 1009.8 1005.8 0.0
25/12:00am 31.1 26.2 4.0 18 14.3 ESE 19 24 10 13 1009.8 1005.8 0.0
 
Date/Time
WST
Temp
°C
App
Temp
°C
Dew
Point
Rel
Hum
%
Delta-T
°C
Wind Press
QNH
hPa
Press
MSL
hPa
Rain
since 9 am
mm
Dir
 
Spd
km/h
Gust
km/h
Spd
kts
Gust
kts
24/11:30pm 31.8 26.4 4.6 18 14.5 SE 22 32 12 17 1009.8 1005.8 0.0
24/11:00pm 32.5 27.8 5.9 19 14.6 ESE 20 32 11 17 1010.0 1006.0 0.0
24/10:30pm 32.8 28.3 6.2 19 14.7 ESE 19 26 10 14 1010.1 1006.1 0.0
24/10:00pm 33.0 28.8 5.5 18 15.0 SE 17 22 9 12 1010.0 1006.0 0.0
24/09:30pm 33.3 29.1 5.8 18 15.1 SE 17 22 9 12 1009.9 1005.9 0.0
24/09:00pm 33.9 29.1 5.4 17 15.6 SE 20 26 11 14 1009.6 1005.7 0.0
24/08:30pm 34.3 29.2 5.8 17 15.7 SE 22 30 12 16 1009.4 1005.5 0.0
24/08:00pm 35.0 29.8 5.4 16 16.3 SE 22 30 12 16 1009.0 1005.1 0.0
24/07:30pm 35.4 29.9 5.8 16 16.4 SSE 24 33 13 18 1008.7 1004.8 0.0
24/07:00pm 36.3 30.7 5.5 15 17.1 SE 24 30 13 16 1008.3 1004.3 0.0
24/06:30pm 37.0 31.3 5.1 14 17.6 SE 24 33 13 18 1008.0 1004.0 0.0
24/06:00pm 37.7 31.6 4.6 13 18.3 SSE 26 33 14 18 1007.4 1003.5 0.0
24/05:30pm 37.9 32.9 4.7 13 18.3 SE 20 35 11 19 1007.3 1003.4 0.0
24/05:00pm 38.5 33.2 5.2 13 18.6 SE 22 32 12 17 1007.7 1003.7 0.0
24/04:30pm 38.6 33.4 5.3 13 18.6 SSE 22 32 12 17 1007.6 1003.6 0.0
24/04:00pm 39.1 33.2 5.7 13 18.9 SSE 26 44 14 24 1007.4 1003.5 0.0
24/03:30pm 39.0 35.5 5.6 13 18.8 WSW 13 19 7 10 1007.7 1003.7 0.0
24/03:00pm 37.6 34.5 5.6 14 17.9 SSE 11 17 6 9 1008.3 1004.3 0.0
24/02:30pm 37.5 32.3 5.5 14 17.8 SE 22 35 12 19 1008.5 1004.6 0.0
24/02:00pm 38.1 34.3 6.0 14 18.1 SE 15 28 8 15 1008.7 1004.8 0.0
24/01:30pm 37.6 34.1 5.6 14 17.9 SE 13 22 7 12 1008.9 1005.0 0.0
24/01:00pm 36.6 32.0 5.8 15 17.2 SE 19 28 10 15 1009.2 1005.3 0.0
24/12:30pm 37.7 34.4 6.6 15 17.6 E 13 22 7 12 1009.6 1005.7 0.0
24/12:00pm 36.1 33.0 7.2 17 16.5 E 13 22 7 12 1010.0 1006.0 0.0
24/11:30am 35.5 32.5 7.5 18 15.9 ENE 13 22 7 12 1010.6 1006.7 0.0
24/11:00am 35.2 31.0 7.3 18 15.8 ENE 19 30 10 16 1011.0 1007.1 0.0
24/10:30am 34.2 30.3 7.3 19 15.2 E 17 28 9 15 1011.4 1007.5 0.0
24/10:00am 33.2 28.9 7.2 20 14.6 ESE 19 30 10 16 1011.5 1007.6 0.0
24/09:30am 33.3 28.3 6.6 19 14.8 ESE 22 30 12 16 1011.7 1007.8 0.0
24/09:00am 31.2 26.3 7.0 22 13.4 E 22 30 12 16 1011.7 1007.8 0.0

Other Formats:

Comma delimited format used in spreadsheet applications
http://www.bom.gov.au/fwo/IDW60801/IDW60801.95448.axf

JavaScript Object Notation format (JSON) in row-major order
http://www.bom.gov.au/fwo/IDW60801/IDW60801.95448.json